Time;durP1;ratioP1;P1;durP2;ratioP2;P2;SDS_P1;SDS_P2;PMS_P1;PMS_P2;Temp;Humidity;BMP_temperature;BMP_pressure;BME280_temperature;BME280_humidity;BME280_pressure;Samples;Min_cycle;Max_cycle;Signal;HPM_P1;HPM_P2
2022/07/13 00:00:33;;;;;;;;;;;20.10;99.90;;;;;;5073647;28;20337;-41
2022/07/13 00:02:58;;;;;;;;;;;20.00;99.90;;;;;;5071418;28;19924;-41
2022/07/13 00:05:24;;;;;;;;;;;20.00;99.90;;;;;;5089990;28;19919;-41
2022/07/13 00:07:49;;;;;;;;;;;20.00;99.90;;;;;;5066033;28;19920;-42
2022/07/13 00:10:15;;;;;;;;;;;20.00;99.90;;;;;;5090366;28;19973;-42
2022/07/13 00:12:41;;;;;;;;;;;20.00;99.90;;;;;;5071219;28;20015;-42
2022/07/13 00:15:06;;;;;;;;;;;20.00;99.90;;;;;;5076491;28;19927;-41
2022/07/13 00:17:32;;;;;;;;;;;20.00;99.90;;;;;;5071661;28;19931;-41
2022/07/13 00:19:57;;;;;;;;;;;20.00;99.90;;;;;;5073289;28;19920;-41
2022/07/13 00:22:25;;;;;;;;;;;20.00;99.90;;;;;;5088474;28;19934;-41
2022/07/13 00:24:50;;;;;;;;;;;20.00;99.90;;;;;;5064017;28;19920;-41
2022/07/13 00:27:16;;;;;;;;;;;20.00;99.90;;;;;;5056357;28;20022;-41
2022/07/13 00:29:41;;;;;;;;;;;20.00;99.90;;;;;;5072838;28;19974;-41
2022/07/13 00:32:07;;;;;;;;;;;20.00;99.90;;;;;;5072574;28;19927;-42
2022/07/13 00:34:32;;;;;;;;;;;19.90;99.90;;;;;;5073430;28;20015;-41
2022/07/13 00:36:58;;;;;;;;;;;19.90;99.90;;;;;;5068129;28;20371;-41
2022/07/13 00:39:24;;;;;;;;;;;19.90;99.90;;;;;;5093236;28;20293;-41
2022/07/13 00:41:49;;;;;;;;;;;19.90;99.90;;;;;;5084822;28;20530;-42
2022/07/13 00:44:16;;;;;;;;;;;19.90;99.90;;;;;;5085541;28;20012;-42
2022/07/13 00:46:43;;;;;;;;;;;19.90;99.90;;;;;;5058970;28;19928;-41
2022/07/13 00:49:10;;;;;;;;;;;19.80;99.90;;;;;;5072087;28;19920;-41
2022/07/13 00:51:36;;;;;;;;;;;19.80;99.90;;;;;;5073524;28;19978;-41
2022/07/13 00:54:02;;;;;;;;;;;19.80;99.90;;;;;;5072309;28;19991;-41
2022/07/13 00:56:28;;;;;;;;;;;19.80;99.90;;;;;;5060467;28;20481;-42
2022/07/13 00:58:53;;;;;;;;;;;19.80;99.90;;;;;;5083651;28;20007;-41
2022/07/13 01:01:19;;;;;;;;;;;19.80;99.90;;;;;;5071392;28;19973;-41
2022/07/13 01:03:44;;;;;;;;;;;19.80;99.90;;;;;;5088467;28;19967;-42
2022/07/13 01:06:10;;;;;;;;;;;19.80;99.90;;;;;;5085714;28;19927;-42
2022/07/13 01:08:36;;;;;;;;;;;19.80;99.90;;;;;;5066566;28;19994;-41
2022/07/13 01:11:01;;;;;;;;;;;19.80;99.90;;;;;;5072745;28;19924;-41
2022/07/13 01:13:27;;;;;;;;;;;19.80;99.90;;;;;;5088837;28;19920;-42
2022/07/13 01:15:53;;;;;;;;;;;19.80;99.90;;;;;;5079015;28;20382;-41
2022/07/13 01:18:18;;;;;;;;;;;19.80;99.90;;;;;;5059646;28;20002;-41
2022/07/13 01:20:44;;;;;;;;;;;19.80;99.90;;;;;;5092768;28;19920;-41
2022/07/13 01:23:13;;;;;;;;;;;19.80;99.90;;;;;;5074054;28;19927;-42
2022/07/13 01:25:39;;;;;;;;;;;19.80;99.90;;;;;;5062710;28;20378;-41
2022/07/13 01:28:04;;;;;;;;;;;19.80;99.90;;;;;;5071297;28;19920;-41
2022/07/13 01:30:30;;;;;;;;;;;19.80;99.90;;;;;;5071907;28;19920;-41
2022/07/13 01:32:55;;;;;;;;;;;19.80;99.90;;;;;;5071300;28;20379;-42
2022/07/13 01:35:22;;;;;;;;;;;19.80;99.90;;;;;;5072390;28;19928;-41
2022/07/13 01:37:47;;;;;;;;;;;19.90;99.90;;;;;;5056433;28;20324;-41
2022/07/13 01:40:13;;;;;;;;;;;19.80;99.90;;;;;;5083490;28;19985;-41
2022/07/13 01:42:43;;;;;;;;;;;19.80;99.90;;;;;;5080829;28;19920;-41
2022/07/13 01:45:09;;;;;;;;;;;19.80;99.90;;;;;;5079896;28;19990;-41
2022/07/13 01:47:42;;;;;;;;;;;19.90;99.90;;;;;;5055545;28;19929;-41
2022/07/13 01:50:08;;;;;;;;;;;19.80;99.90;;;;;;5081023;28;20302;-41
2022/07/13 01:52:35;;;;;;;;;;;19.90;99.90;;;;;;5091337;28;20454;-41
2022/07/13 01:55:05;;;;;;;;;;;19.80;99.90;;;;;;5091617;28;19959;-41
2022/07/13 01:57:31;;;;;;;;;;;19.90;99.90;;;;;;5075855;28;19920;-42
2022/07/13 02:00:00;;;;;;;;;;;19.80;99.90;;;;;;5071835;28;19920;-41
2022/07/13 02:02:26;;;;;;;;;;;19.90;99.90;;;;;;5069637;28;19931;-41
2022/07/13 02:04:52;;;;;;;;;;;19.90;99.90;;;;;;5071754;28;20290;-41
2022/07/13 02:07:17;;;;;;;;;;;19.80;99.90;;;;;;5060918;28;19926;-42
2022/07/13 02:09:43;;;;;;;;;;;19.80;99.90;;;;;;5091821;28;19969;-41
2022/07/13 02:12:08;;;;;;;;;;;19.80;99.90;;;;;;5072086;28;20127;-42
2022/07/13 02:14:34;;;;;;;;;;;19.80;99.90;;;;;;5071368;28;19986;-41
2022/07/13 02:16:59;;;;;;;;;;;19.80;99.90;;;;;;5075506;28;19920;-42
2022/07/13 02:19:25;;;;;;;;;;;19.80;99.90;;;;;;5090381;28;19920;-42
2022/07/13 02:21:50;;;;;;;;;;;19.80;99.90;;;;;;5091140;28;19993;-41
2022/07/13 02:24:16;;;;;;;;;;;19.80;99.90;;;;;;5071427;28;19929;-41
2022/07/13 02:26:42;;;;;;;;;;;19.90;99.90;;;;;;5056794;28;20391;-41
2022/07/13 02:29:07;;;;;;;;;;;19.80;99.90;;;;;;5068720;28;20268;-41
2022/07/13 02:31:34;;;;;;;;;;;19.80;99.90;;;;;;5077360;28;20427;-41
2022/07/13 02:34:00;;;;;;;;;;;19.90;99.90;;;;;;5072404;28;19928;-41
2022/07/13 02:36:26;;;;;;;;;;;19.80;99.90;;;;;;5058969;28;20019;-42
2022/07/13 02:38:51;;;;;;;;;;;19.90;99.90;;;;;;5067628;28;19994;-41
2022/07/13 02:41:17;;;;;;;;;;;19.90;99.90;;;;;;5070749;28;19965;-41
2022/07/13 02:43:42;;;;;;;;;;;19.90;99.90;;;;;;5070147;28;19928;-41
2022/07/13 02:46:08;;;;;;;;;;;19.90;99.90;;;;;;5084078;28;19925;-42
2022/07/13 02:48:34;;;;;;;;;;;19.90;99.90;;;;;;5071933;28;19924;-41
2022/07/13 02:50:59;;;;;;;;;;;19.90;99.90;;;;;;5090849;28;19920;-41
2022/07/13 02:53:25;;;;;;;;;;;19.90;99.90;;;;;;5090262;28;19927;-42
2022/07/13 02:55:50;;;;;;;;;;;19.90;99.90;;;;;;5091154;28;20715;-42
2022/07/13 02:58:16;;;;;;;;;;;19.90;99.90;;;;;;5074314;28;19924;-41
2022/07/13 03:00:41;;;;;;;;;;;19.90;99.90;;;;;;5073872;28;20010;-41
2022/07/13 03:03:07;;;;;;;;;;;19.90;99.90;;;;;;5069650;28;19924;-41
2022/07/13 03:05:33;;;;;;;;;;;19.90;99.90;;;;;;5070813;28;19959;-41
2022/07/13 03:07:58;;;;;;;;;;;19.80;99.90;;;;;;5054485;28;20407;-42
2022/07/13 03:10:24;;;;;;;;;;;19.90;99.90;;;;;;5070107;28;19920;-41
2022/07/13 03:12:49;;;;;;;;;;;19.80;99.90;;;;;;5081714;28;19920;-42
2022/07/13 03:15:15;;;;;;;;;;;19.90;99.90;;;;;;5081786;28;19967;-42
2022/07/13 03:17:41;;;;;;;;;;;19.80;99.90;;;;;;5053960;28;19936;-42
2022/07/13 03:20:07;;;;;;;;;;;19.80;99.90;;;;;;5070740;28;20333;-41
2022/07/13 03:22:33;;;;;;;;;;;19.80;99.90;;;;;;5070052;28;19921;-41
2022/07/13 03:24:58;;;;;;;;;;;19.80;99.90;;;;;;5060046;28;20489;-41
2022/07/13 03:27:24;;;;;;;;;;;19.80;99.90;;;;;;5054361;28;20413;-41
2022/07/13 03:29:50;;;;;;;;;;;19.80;99.90;;;;;;5075633;28;20405;-41
2022/07/13 03:32:15;;;;;;;;;;;19.80;99.90;;;;;;5090179;28;19931;-42
2022/07/13 03:34:41;;;;;;;;;;;19.80;99.90;;;;;;5071730;28;19980;-41
2022/07/13 03:37:08;;;;;;;;;;;19.80;99.90;;;;;;5054831;28;20069;-42
2022/07/13 03:39:34;;;;;;;;;;;19.80;99.90;;;;;;5075962;28;19927;-41
2022/07/13 03:42:00;;;;;;;;;;;19.80;99.90;;;;;;5080542;28;19921;-41
2022/07/13 03:44:25;;;;;;;;;;;19.80;99.90;;;;;;5085457;28;20571;-41
2022/07/13 03:46:51;;;;;;;;;;;19.80;99.90;;;;;;5055523;28;19934;-42
2022/07/13 03:49:16;;;;;;;;;;;19.80;99.90;;;;;;5073128;28;20526;-41
2022/07/13 03:51:42;;;;;;;;;;;19.80;99.90;;;;;;5090322;28;19927;-41
2022/07/13 03:54:08;;;;;;;;;;;19.80;99.90;;;;;;5089410;28;19924;-42
2022/07/13 03:56:34;;;;;;;;;;;19.80;99.90;;;;;;5075319;28;19970;-42
2022/07/13 03:58:59;;;;;;;;;;;19.80;99.90;;;;;;5087368;28;19990;-41
2022/07/13 04:01:25;;;;;;;;;;;19.80;99.90;;;;;;5079773;28;19920;-42
2022/07/13 04:03:51;;;;;;;;;;;19.80;99.90;;;;;;5069164;28;19971;-41
2022/07/13 04:06:17;;;;;;;;;;;19.80;99.90;;;;;;5060712;28;19954;-41
2022/07/13 04:08:42;;;;;;;;;;;19.80;99.90;;;;;;5067304;28;19920;-41
2022/07/13 04:11:08;;;;;;;;;;;19.80;99.90;;;;;;5074825;28;19927;-42
2022/07/13 04:13:33;;;;;;;;;;;19.80;99.90;;;;;;5081027;28;19923;-41
2022/07/13 04:15:59;;;;;;;;;;;19.80;99.90;;;;;;5076473;28;19924;-41
2022/07/13 04:18:25;;;;;;;;;;;19.80;99.90;;;;;;5058687;28;19978;-41
2022/07/13 04:20:50;;;;;;;;;;;19.80;99.90;;;;;;5093501;28;19964;-41
2022/07/13 04:23:16;;;;;;;;;;;19.80;99.90;;;;;;5105793;28;19930;-41
2022/07/13 04:25:41;;;;;;;;;;;19.80;99.90;;;;;;5054727;28;19978;-41
2022/07/13 04:28:07;;;;;;;;;;;19.80;99.90;;;;;;5043346;28;19940;-41
2022/07/13 04:30:32;;;;;;;;;;;19.80;99.90;;;;;;5070365;28;19920;-41
2022/07/13 04:32:58;;;;;;;;;;;19.80;99.90;;;;;;5067413;28;19921;-41
2022/07/13 04:35:23;;;;;;;;;;;19.80;99.90;;;;;;5058182;28;19927;-41
2022/07/13 04:37:49;;;;;;;;;;;19.90;99.90;;;;;;5088247;28;19921;-41
2022/07/13 04:40:15;;;;;;;;;;;19.90;99.90;;;;;;5083052;28;19943;-41
2022/07/13 04:42:40;;;;;;;;;;;19.90;99.90;;;;;;5081665;28;20374;-41
2022/07/13 04:45:06;;;;;;;;;;;19.90;99.90;;;;;;5084453;28;20275;-41
2022/07/13 04:47:31;;;;;;;;;;;19.90;99.90;;;;;;5058798;28;19928;-42
2022/07/13 04:49:57;;;;;;;;;;;19.90;99.90;;;;;;5092822;28;19967;-41
2022/07/13 04:52:22;;;;;;;;;;;19.90;99.90;;;;;;5090079;28;19994;-42
2022/07/13 04:54:48;;;;;;;;;;;19.90;99.90;;;;;;5073168;28;19920;-41
2022/07/13 04:57:14;;;;;;;;;;;20.00;99.90;;;;;;5056709;28;20383;-42
2022/07/13 04:59:39;;;;;;;;;;;20.00;99.90;;;;;;5072536;28;19924;-41
2022/07/13 05:02:05;;;;;;;;;;;20.00;99.90;;;;;;5103926;28;20349;-42
2022/07/13 05:04:30;;;;;;;;;;;20.00;99.90;;;;;;5072599;28;20466;-42
2022/07/13 05:06:56;;;;;;;;;;;20.00;99.90;;;;;;5060132;28;19924;-41
2022/07/13 05:09:21;;;;;;;;;;;20.10;99.90;;;;;;5091656;28;20282;-41
2022/07/13 05:11:47;;;;;;;;;;;20.00;99.90;;;;;;5077324;28;19967;-42
2022/07/13 05:14:13;;;;;;;;;;;20.00;99.90;;;;;;5071300;28;19921;-41
2022/07/13 05:16:38;;;;;;;;;;;20.10;99.90;;;;;;5054999;28;20379;-42
2022/07/13 05:19:05;;;;;;;;;;;20.10;99.90;;;;;;5069903;28;19943;-41
2022/07/13 05:21:30;;;;;;;;;;;20.10;99.90;;;;;;5072009;28;20404;-42
2022/07/13 05:23:56;;;;;;;;;;;20.10;99.90;;;;;;5064536;28;19924;-41
2022/07/13 05:26:22;;;;;;;;;;;20.10;99.90;;;;;;5058737;28;20385;-42
2022/07/13 05:28:47;;;;;;;;;;;20.10;99.90;;;;;;5067815;28;19920;-41
2022/07/13 05:31:13;;;;;;;;;;;20.20;99.90;;;;;;5059690;28;19928;-41
2022/07/13 05:33:38;;;;;;;;;;;20.20;99.90;;;;;;5070523;28;19927;-41
2022/07/13 05:36:04;;;;;;;;;;;20.20;99.90;;;;;;5071625;28;19924;-41
2022/07/13 05:38:30;;;;;;;;;;;20.20;99.90;;;;;;5056722;28;19920;-41
2022/07/13 05:40:56;;;;;;;;;;;20.20;99.90;;;;;;5075239;28;19920;-41
2022/07/13 05:43:21;;;;;;;;;;;20.20;99.90;;;;;;5082724;28;19927;-41
2022/07/13 05:45:47;;;;;;;;;;;20.20;99.90;;;;;;5073917;28;19921;-41
2022/07/13 05:48:12;;;;;;;;;;;20.10;99.90;;;;;;5070704;28;19920;-41
2022/07/13 05:50:38;;;;;;;;;;;20.20;99.90;;;;;;5085084;28;19963;-41
2022/07/13 05:53:03;;;;;;;;;;;20.20;99.90;;;;;;5090921;28;19945;-42
2022/07/13 05:55:29;;;;;;;;;;;20.10;99.90;;;;;;5092058;28;20010;-41
2022/07/13 05:57:54;;;;;;;;;;;20.20;99.90;;;;;;5075920;28;20379;-41
2022/07/13 06:00:20;;;;;;;;;;;20.20;99.90;;;;;;5090756;28;19965;-41
2022/07/13 06:02:46;;;;;;;;;;;20.30;99.90;;;;;;5070532;28;19924;-41
2022/07/13 06:05:11;;;;;;;;;;;20.30;99.90;;;;;;5084864;28;19928;-41
2022/07/13 06:07:37;;;;;;;;;;;20.30;99.90;;;;;;5063516;28;19997;-41
2022/07/13 06:10:04;;;;;;;;;;;20.30;99.90;;;;;;5090367;28;19920;-41
2022/07/13 06:12:29;;;;;;;;;;;20.30;99.90;;;;;;5079448;28;20010;-41
2022/07/13 06:14:55;;;;;;;;;;;20.40;99.90;;;;;;5084350;28;20050;-41
2022/07/13 06:17:21;;;;;;;;;;;20.40;99.90;;;;;;5062431;28;20429;-41
2022/07/13 06:19:47;;;;;;;;;;;20.40;99.90;;;;;;5078165;28;19953;-41
2022/07/13 06:22:13;;;;;;;;;;;20.40;99.90;;;;;;5068806;28;19921;-42
2022/07/13 06:24:38;;;;;;;;;;;20.50;99.90;;;;;;5069324;28;20497;-42
2022/07/13 06:27:04;;;;;;;;;;;20.50;99.90;;;;;;5055531;28;19920;-41
2022/07/13 06:29:29;;;;;;;;;;;20.50;99.90;;;;;;5079036;28;19923;-41
2022/07/13 06:31:55;;;;;;;;;;;20.60;99.90;;;;;;5080558;28;20020;-41
2022/07/13 06:34:20;;;;;;;;;;;20.60;99.90;;;;;;5081100;28;19924;-41
2022/07/13 06:36:46;;;;;;;;;;;20.70;99.90;;;;;;5063950;28;19924;-42
2022/07/13 06:39:11;;;;;;;;;;;20.80;99.90;;;;;;5080869;28;19919;-41
2022/07/13 06:41:37;;;;;;;;;;;20.80;99.90;;;;;;5078454;28;19963;-41
2022/07/13 06:44:03;;;;;;;;;;;20.80;99.90;;;;;;5090199;28;20007;-42
2022/07/13 06:46:28;;;;;;;;;;;20.90;99.90;;;;;;5058702;28;20465;-41
2022/07/13 06:48:54;;;;;;;;;;;21.00;99.90;;;;;;5064064;28;19920;-41
2022/07/13 06:51:19;;;;;;;;;;;21.00;99.90;;;;;;5077176;28;20258;-42
2022/07/13 06:53:45;;;;;;;;;;;21.20;99.90;;;;;;5089864;28;19924;-41
2022/07/13 06:56:11;;;;;;;;;;;21.30;99.90;;;;;;5084559;28;19932;-42
2022/07/13 06:58:37;;;;;;;;;;;21.20;99.90;;;;;;5080856;28;20011;-41
2022/07/13 07:01:03;;;;;;;;;;;21.30;99.90;;;;;;5050939;28;19925;-41
2022/07/13 07:03:28;;;;;;;;;;;21.40;99.90;;;;;;5057410;28;20329;-42
2022/07/13 07:05:55;;;;;;;;;;;21.40;99.90;;;;;;5060173;28;19942;-42
2022/07/13 07:08:21;;;;;;;;;;;21.50;99.90;;;;;;5042064;28;20368;-42
2022/07/13 07:10:47;;;;;;;;;;;21.50;99.90;;;;;;5058126;28;20015;-41
2022/07/13 07:13:12;;;;;;;;;;;21.60;99.90;;;;;;5061666;28;19928;-42
2022/07/13 07:15:39;;;;;;;;;;;21.60;99.90;;;;;;5061951;28;20623;-42
2022/07/13 07:18:05;;;;;;;;;;;21.60;99.90;;;;;;5044407;28;19924;-41
2022/07/13 07:20:30;;;;;;;;;;;21.70;99.90;;;;;;5061984;28;19927;-42
2022/07/13 07:22:56;;;;;;;;;;;21.70;99.90;;;;;;5059214;28;20406;-41
2022/07/13 07:25:22;;;;;;;;;;;21.80;99.90;;;;;;5055948;28;20126;-41
2022/07/13 07:27:48;;;;;;;;;;;21.80;99.90;;;;;;5042979;28;20011;-41
2022/07/13 07:30:14;;;;;;;;;;;21.80;99.90;;;;;;5057168;28;20290;-41
2022/07/13 07:32:40;;;;;;;;;;;21.90;99.90;;;;;;5054773;28;19934;-42
2022/07/13 07:35:06;;;;;;;;;;;21.80;99.90;;;;;;5060694;28;19925;-42
2022/07/13 07:37:33;;;;;;;;;;;22.00;99.90;;;;;;5043096;28;19920;-42
2022/07/13 07:39:59;;;;;;;;;;;22.00;99.90;;;;;;5060201;28;19920;-42
2022/07/13 07:42:24;;;;;;;;;;;22.10;99.90;;;;;;5056293;28;20694;-42
2022/07/13 07:44:50;;;;;;;;;;;22.10;99.90;;;;;;5057465;28;19974;-41
2022/07/13 07:47:16;;;;;;;;;;;22.20;99.90;;;;;;5046189;28;19964;-42
2022/07/13 07:49:42;;;;;;;;;;;22.30;99.90;;;;;;5061836;28;19925;-41
2022/07/13 07:52:08;;;;;;;;;;;22.30;99.90;;;;;;5063220;28;19928;-42
2022/07/13 07:54:33;;;;;;;;;;;22.40;99.90;;;;;;5062918;28;20275;-41
2022/07/13 07:56:59;;;;;;;;;;;22.40;99.90;;;;;;5045354;28;19923;-41
2022/07/13 07:59:26;;;;;;;;;;;22.50;99.90;;;;;;5062058;28;20363;-41
2022/07/13 08:01:52;;;;;;;;;;;22.50;99.90;;;;;;5062110;28;19990;-42
2022/07/13 08:04:17;;;;;;;;;;;22.60;99.90;;;;;;5063964;28;19924;-41
2022/07/13 08:06:43;;;;;;;;;;;22.60;99.90;;;;;;5045021;28;19920;-41
2022/07/13 08:09:08;;;;;;;;;;;22.70;99.90;;;;;;5060492;28;20110;-41
2022/07/13 08:11:35;;;;;;;;;;;22.70;99.90;;;;;;5062234;28;20510;-41
2022/07/13 08:14:00;;;;;;;;;;;22.70;99.90;;;;;;5061212;28;19921;-41
2022/07/13 08:16:26;;;;;;;;;;;22.70;99.90;;;;;;5050234;28;20403;-42
2022/07/13 08:18:51;;;;;;;;;;;22.70;99.90;;;;;;5060207;28;19924;-42
2022/07/13 08:21:17;;;;;;;;;;;22.70;99.90;;;;;;5061548;28;19932;-41
2022/07/13 08:23:52;;;;;;;;;;;22.80;99.90;;;;;;5064283;28;19928;-41
2022/07/13 08:26:21;;;;;;;;;;;22.80;99.90;;;;;;5049014;28;19946;-42
2022/07/13 08:28:47;;;;;;;;;;;22.80;99.90;;;;;;5047717;28;19963;-41
2022/07/13 08:31:13;;;;;;;;;;;22.80;99.90;;;;;;5062044;28;19924;-41
2022/07/13 08:39:07;;;;;;;;;;;23.00;99.90;;;;;;5059791;28;19935;-41
2022/07/13 08:41:33;;;;;;;;;;;22.90;99.90;;;;;;5059178;28;19920;-41
2022/07/13 08:43:59;;;;;;;;;;;22.90;99.90;;;;;;5061192;28;19940;-42
2022/07/13 08:46:25;;;;;;;;;;;23.00;99.90;;;;;;5046714;28;20374;-42
2022/07/13 08:48:53;;;;;;;;;;;23.00;99.90;;;;;;5057127;28;19993;-41
2022/07/13 08:51:20;;;;;;;;;;;23.00;99.90;;;;;;5057311;28;19928;-42
2022/07/13 08:53:45;;;;;;;;;;;23.00;99.90;;;;;;5057120;28;19974;-42
2022/07/13 08:56:11;;;;;;;;;;;23.00;99.90;;;;;;5055273;28;20021;-42
2022/07/13 08:58:37;;;;;;;;;;;23.10;99.90;;;;;;5051384;28;19932;-41
2022/07/13 09:01:03;;;;;;;;;;;23.10;99.90;;;;;;5060847;28;19924;-41
2022/07/13 09:03:33;;;;;;;;;;;23.10;99.90;;;;;;5062873;28;19927;-41
2022/07/13 09:05:59;;;;;;;;;;;23.10;99.90;;;;;;5060638;28;19943;-41
2022/07/13 09:08:24;;;;;;;;;;;23.10;99.90;;;;;;5043938;28;19963;-42
2022/07/13 09:10:51;;;;;;;;;;;23.10;99.90;;;;;;5058988;28;19974;-41
2022/07/13 09:13:38;;;;;;;;;;;23.20;99.90;;;;;;5061556;28;20389;-41
2022/07/13 09:16:17;;;;;;;;;;;23.20;99.90;;;;;;5054162;28;19951;-41
2022/07/13 09:18:44;;;;;;;;;;;23.30;99.90;;;;;;5054917;28;19926;-41
2022/07/13 09:21:09;;;;;;;;;;;23.30;99.90;;;;;;5058016;28;20432;-42
2022/07/13 09:23:35;;;;;;;;;;;23.30;99.90;;;;;;5056967;28;19920;-41
2022/07/13 09:26:01;;;;;;;;;;;23.30;99.90;;;;;;5060895;28;20422;-42
2022/07/13 09:28:26;;;;;;;;;;;23.40;99.90;;;;;;5044441;28;19927;-41
2022/07/13 09:30:58;;;;;;;;;;;23.30;99.90;;;;;;5058550;28;19943;-41
2022/07/13 09:33:30;;;;;;;;;;;23.40;99.90;;;;;;5060458;28;19962;-41
2022/07/13 09:35:56;;;;;;;;;;;23.40;99.90;;;;;;5053692;28;19928;-42
2022/07/13 09:38:36;;;;;;;;;;;23.40;99.90;;;;;;5032160;28;19963;-42
2022/07/13 09:41:13;;;;;;;;;;;23.40;99.90;;;;;;5052572;28;19928;-41
2022/07/13 09:46:53;;;;;;;;;;;23.40;99.90;;;;;;5040621;28;19981;-41
2022/07/13 09:49:28;;;;;;;;;;;23.40;99.90;;;;;;5052881;28;19928;-41
2022/07/13 09:51:57;;;;;;;;;;;23.40;99.90;;;;;;5052912;28;19924;-42
2022/07/13 09:54:25;;;;;;;;;;;23.40;99.90;;;;;;5051811;28;19934;-42
2022/07/13 09:56:51;;;;;;;;;;;23.50;99.90;;;;;;5038554;28;19979;-42
2022/07/13 09:59:18;;;;;;;;;;;23.50;99.90;;;;;;5052951;28;19932;-41
2022/07/13 10:01:45;;;;;;;;;;;23.40;99.90;;;;;;5052319;28;20327;-42
2022/07/13 10:04:11;;;;;;;;;;;23.40;99.90;;;;;;5051089;28;19928;-41
2022/07/13 10:06:38;;;;;;;;;;;23.50;99.90;;;;;;5038958;28;19959;-41
2022/07/13 10:09:04;;;;;;;;;;;23.50;99.90;;;;;;5049734;28;20571;-42
2022/07/13 10:11:30;;;;;;;;;;;23.40;99.90;;;;;;5051907;28;19920;-41
2022/07/13 10:13:57;;;;;;;;;;;23.50;99.90;;;;;;5049754;28;19920;-42
2022/07/13 10:16:23;;;;;;;;;;;23.40;99.90;;;;;;5039278;28;19933;-42
2022/07/13 10:18:48;;;;;;;;;;;23.40;99.90;;;;;;5049609;28;19928;-41
2022/07/13 10:21:27;;;;;;;;;;;23.50;99.90;;;;;;5050394;28;20438;-41
2022/07/13 10:23:52;;;;;;;;;;;23.40;99.90;;;;;;5049735;28;20186;-41
2022/07/13 10:26:21;;;;;;;;;;;23.40;99.90;;;;;;5041505;28;20381;-41
2022/07/13 10:29:00;;;;;;;;;;;23.50;99.90;;;;;;5047918;28;19927;-42
2022/07/13 10:31:26;;;;;;;;;;;23.50;99.90;;;;;;5052037;28;19943;-42
2022/07/13 10:33:52;;;;;;;;;;;23.50;99.90;;;;;;5050525;28;19928;-41
2022/07/13 10:36:37;;;;;;;;;;;23.50;99.90;;;;;;5041327;28;20496;-42
2022/07/13 10:39:07;;;;;;;;;;;23.50;99.90;;;;;;5049606;28;19921;-42
2022/07/13 10:41:33;;;;;;;;;;;23.50;99.90;;;;;;5048788;28;19926;-42
2022/07/13 10:44:05;;;;;;;;;;;23.60;99.90;;;;;;5050407;28;19920;-41
2022/07/13 10:46:48;;;;;;;;;;;23.60;99.90;;;;;;5037235;28;19928;-43
2022/07/13 10:49:26;;;;;;;;;;;23.60;99.90;;;;;;5048166;28;19928;-41
2022/07/13 10:51:51;;;;;;;;;;;23.60;99.90;;;;;;5049991;28;19931;-41
2022/07/13 10:54:17;;;;;;;;;;;23.60;99.90;;;;;;5049746;28;19928;-41
2022/07/13 10:57:03;;;;;;;;;;;23.60;99.90;;;;;;5036577;28;19924;-42
2022/07/13 10:59:44;;;;;;;;;;;23.60;99.90;;;;;;5051492;28;20393;-42
2022/07/13 11:02:30;;;;;;;;;;;23.70;99.90;;;;;;5051821;28;19985;-42
2022/07/13 11:04:56;;;;;;;;;;;23.70;99.90;;;;;;5052054;28;19929;-42
2022/07/13 11:07:37;;;;;;;;;;;23.70;99.90;;;;;;5034233;28;20015;-41
2022/07/13 11:10:22;;;;;;;;;;;23.70;99.90;;;;;;5050080;28;20294;-42
2022/07/13 11:12:58;;;;;;;;;;;23.60;99.90;;;;;;5051388;28;19966;-42
2022/07/13 11:15:23;;;;;;;;;;;23.70;99.90;;;;;;5052753;28;19932;-42
2022/07/13 11:17:53;;;;;;;;;;;23.70;99.90;;;;;;5036988;28;19934;-42
2022/07/13 11:20:19;;;;;;;;;;;23.70;99.90;;;;;;5049035;28;20446;-41
2022/07/13 11:28:45;;;;;;;;;;;23.70;99.90;;;;;;5050672;27;20547;-32
2022/07/13 11:31:12;;;;;;;;;;;23.70;99.90;;;;;;5062915;28;19940;-32
2022/07/13 11:33:38;;;;;;;;;;;23.70;99.90;;;;;;5057866;28;19929;-32
2022/07/13 11:36:04;;;;;;;;;;;23.80;99.90;;;;;;5059824;28;19935;-32
2022/07/13 11:38:34;;;;;;;;;;;23.70;99.90;;;;;;5046856;28;21010;-41
2022/07/13 11:41:00;;;;;;;;;;;23.70;99.90;;;;;;5049892;28;19940;-41
2022/07/13 11:43:26;;;;;;;;;;;23.70;99.90;;;;;;5037768;28;19920;-41
2022/07/13 11:45:51;;;;;;;;;;;23.80;99.90;;;;;;5038486;28;19929;-41
2022/07/13 11:48:17;;;;;;;;;;;23.80;99.90;;;;;;5018996;28;20699;-40
2022/07/13 11:50:43;;;;;;;;;;;23.90;99.90;;;;;;5040518;28;20383;-41
2022/07/13 11:53:19;;;;;;;;;;;23.90;99.90;;;;;;5042111;28;19972;-41
2022/07/13 11:55:44;;;;;;;;;;;24.00;99.90;;;;;;5042754;28;19939;-40
2022/07/13 11:58:20;;;;;;;;;;;24.10;99.90;;;;;;5026008;28;19940;-41
2022/07/13 12:00:46;;;;;;;;;;;24.10;99.90;;;;;;5041047;28;20307;-41
2022/07/13 12:03:12;;;;;;;;;;;24.00;99.90;;;;;;5038878;28;19932;-41
2022/07/13 12:05:42;;;;;;;;;;;24.00;99.90;;;;;;5042123;28;19982;-41
2022/07/13 12:08:07;;;;;;;;;;;24.10;99.90;;;;;;5023256;28;19925;-41
2022/07/13 12:10:36;;;;;;;;;;;24.20;99.90;;;;;;5040190;28;20437;-41
2022/07/13 12:13:01;;;;;;;;;;;24.30;99.90;;;;;;5039862;28;20003;-41
2022/07/13 12:15:27;;;;;;;;;;;24.40;99.90;;;;;;5039118;28;19932;-41
2022/07/13 12:17:53;;;;;;;;;;;24.50;99.90;;;;;;5026623;28;20437;-41
2022/07/13 12:20:20;;;;;;;;;;;24.50;99.90;;;;;;5042799;28;19933;-41
2022/07/13 12:22:58;;;;;;;;;;;24.50;99.90;;;;;;5041873;28;20488;-41
2022/07/13 12:25:23;;;;;;;;;;;24.50;99.90;;;;;;5040982;28;20074;-41
2022/07/13 12:27:52;;;;;;;;;;;24.50;99.90;;;;;;5022978;28;19937;-41
2022/07/13 12:30:18;;;;;;;;;;;24.50;99.90;;;;;;5039746;28;20063;-41
2022/07/13 12:33:00;;;;;;;;;;;24.50;99.90;;;;;;5035213;28;19933;-41
2022/07/13 12:35:30;;;;;;;;;;;24.60;99.90;;;;;;5037419;28;19936;-41
2022/07/13 12:37:56;;;;;;;;;;;24.50;99.90;;;;;;5024970;28;19929;-41
2022/07/13 12:40:41;;;;;;;;;;;24.60;99.90;;;;;;5028756;28;19968;-41
2022/07/13 12:43:21;;;;;;;;;;;24.60;99.90;;;;;;5023944;28;20531;-41
2022/07/13 12:45:48;;;;;;;;;;;24.60;99.90;;;;;;5027994;28;19939;-41
2022/07/13 12:48:14;;;;;;;;;;;24.60;99.90;;;;;;5011397;28;20559;-41
2022/07/13 12:50:40;;;;;;;;;;;24.60;99.90;;;;;;5028347;28;19932;-41
2022/07/13 12:53:05;;;;;;;;;;;24.70;99.90;;;;;;5025589;28;19931;-41
2022/07/13 12:55:48;;;;;;;;;;;24.80;99.90;;;;;;5028422;28;19933;-41
2022/07/13 12:58:14;;;;;;;;;;;24.80;99.90;;;;;;5011016;28;20525;-41
2022/07/13 13:00:39;;;;;;;;;;;24.90;99.90;;;;;;5027841;28;19940;-41
2022/07/13 13:03:05;;;;;;;;;;;24.90;99.90;;;;;;5027464;28;19925;-44
2022/07/13 13:05:31;;;;;;;;;;;24.90;99.90;;;;;;5001519;28;19933;-41
2022/07/13 13:07:56;;;;;;;;;;;24.90;99.90;;;;;;5004030;28;19933;-41
2022/07/13 13:10:22;;;;;;;;;;;24.90;99.90;;;;;;5021789;28;19932;-41
2022/07/13 13:12:47;;;;;;;;;;;25.00;99.90;;;;;;5020441;28;21122;-41
2022/07/13 13:15:15;;;;;;;;;;;24.90;99.90;;;;;;5018973;28;19929;-41
2022/07/13 13:17:41;;;;;;;;;;;24.90;99.90;;;;;;4986888;28;20023;-42
2022/07/13 13:20:06;;;;;;;;;;;24.80;99.90;;;;;;5009015;28;19947;-42
2022/07/13 13:22:32;;;;;;;;;;;24.80;99.90;;;;;;5008612;28;19997;-41
2022/07/13 13:24:57;;;;;;;;;;;24.80;99.90;;;;;;5010239;28;20499;-41
2022/07/13 13:27:23;;;;;;;;;;;24.70;99.90;;;;;;4995258;28;19971;-41
2022/07/13 13:32:33;;;;;;;;;;;25.00;99.90;;;;;;4959350;28;19942;-42
2022/07/13 13:34:58;;;;;;;;;;;24.90;99.90;;;;;;4998132;28;19921;-43
2022/07/13 13:37:24;;;;;;;;;;;25.00;99.90;;;;;;4994076;28;19913;-41
2022/07/13 13:39:50;;;;;;;;;;;25.00;99.90;;;;;;5008884;28;20428;-41
2022/07/13 13:42:15;;;;;;;;;;;25.10;99.90;;;;;;5007066;28;19921;-42
2022/07/13 13:44:41;;;;;;;;;;;25.10;99.90;;;;;;5010929;28;19929;-42
2022/07/13 13:47:06;;;;;;;;;;;25.20;99.90;;;;;;4976948;28;19943;-41
2022/07/13 13:49:32;;;;;;;;;;;25.10;99.90;;;;;;4985464;28;19928;-41
2022/07/13 13:51:57;;;;;;;;;;;25.30;99.90;;;;;;5008186;28;19936;-41
2022/07/13 13:54:23;;;;;;;;;;;25.30;99.90;;;;;;5009667;28;19921;-41
2022/07/13 13:56:49;;;;;;;;;;;25.40;99.90;;;;;;4994277;28;20106;-41
2022/07/13 13:59:14;;;;;;;;;;;25.40;99.90;;;;;;5005800;28;19939;-41
2022/07/13 14:01:40;;;;;;;;;;;25.40;99.90;;;;;;5010256;28;19929;-42
2022/07/13 14:04:06;;;;;;;;;;;25.50;99.90;;;;;;5006996;28;19929;-42
2022/07/13 14:06:31;;;;;;;;;;;25.40;99.90;;;;;;4993811;28;20344;-41
2022/07/13 14:08:57;;;;;;;;;;;25.40;99.90;;;;;;5006800;28;19978;-41
2022/07/13 14:11:22;;;;;;;;;;;25.40;99.90;;;;;;4993787;28;20387;-41
2022/07/13 14:13:48;;;;;;;;;;;25.40;99.90;;;;;;5007934;28;20022;-40
2022/07/13 14:16:14;;;;;;;;;;;25.50;99.90;;;;;;4997378;28;19977;-41
2022/07/13 14:18:40;;;;;;;;;;;25.50;99.90;;;;;;5001516;28;19982;-41
2022/07/13 14:21:06;;;;;;;;;;;25.40;99.90;;;;;;5006681;28;19929;-41
2022/07/13 14:23:32;;;;;;;;;;;25.40;99.90;;;;;;5006042;28;20607;-41
2022/07/13 14:25:57;;;;;;;;;;;25.60;99.90;;;;;;5007189;28;19929;-41
2022/07/13 14:28:23;;;;;;;;;;;25.60;99.90;;;;;;4987598;28;19929;-41
2022/07/13 14:30:49;;;;;;;;;;;25.60;99.90;;;;;;5003664;28;20007;-41